Time;durP1;ratioP1;P1;durP2;ratioP2;P2;SDS_P1;SDS_P2;PMS_P1;PMS_P2;Temp;Humidity;BMP_temperature;BMP_pressure;BME280_temperature;BME280_humidity;BME280_pressure;Samples;Min_cycle;Max_cycle;Signal;HPM_P1;HPM_P2
2022/03/27 00:01:32;;;;;;;15.70;11.07;;;11.60;1.00;;;;;;5069552;28;20958;-64
2022/03/27 00:03:58;;;;;;;12.60;10.27;;;11.60;1.00;;;;;;5068208;28;20186;-64
2022/03/27 00:06:24;;;;;;;12.77;9.20;;;11.60;1.00;;;;;;5067694;28;21804;-63
2022/03/27 00:08:49;;;;;;;12.93;9.40;;;11.60;1.00;;;;;;5068876;28;20473;-64
2022/03/27 00:11:24;;;;;;;12.47;9.23;;;11.60;1.00;;;;;;5068910;28;20215;-63
2022/03/27 00:13:51;;;;;;;13.40;8.33;;;11.40;1.00;;;;;;5070342;28;20190;-62
2022/03/27 00:16:16;;;;;;;11.63;8.77;;;11.40;1.00;;;;;;5068690;28;20473;-64
2022/03/27 00:18:42;;;;;;;10.70;8.40;;;11.40;1.00;;;;;;5068496;28;20465;-61
2022/03/27 00:21:09;;;;;;;11.53;8.93;;;11.30;1.00;;;;;;5068328;28;20450;-63
2022/03/27 00:23:35;;;;;;;12.00;8.90;;;;;;;;;;5068624;28;20183;-62
2022/03/27 00:26:00;;;;;;;10.43;8.50;;;11.30;1.00;;;;;;5069821;28;20825;-63
2022/03/27 00:28:31;;;;;;;10.13;8.23;;;11.10;1.00;;;;;;5068772;28;20433;-61
2022/03/27 00:30:58;;;;;;;11.00;8.60;;;11.10;1.00;;;;;;5068615;28;20262;-62
2022/03/27 00:33:24;;;;;;;12.00;8.40;;;11.10;1.00;;;;;;5067835;28;20524;-63
2022/03/27 00:35:50;;;;;;;10.27;8.03;;;11.10;1.00;;;;;;5068739;28;20893;-63
2022/03/27 00:38:16;;;;;;;9.27;7.97;;;11.10;1.00;;;;;;5068214;28;20242;-63
2022/03/27 00:40:42;;;;;;;9.33;7.50;;;11.10;1.00;;;;;;5069177;28;20191;-62
2022/03/27 00:43:07;;;;;;;8.97;7.60;;;11.20;1.00;;;;;;5067701;28;20438;-63
2022/03/27 00:45:33;;;;;;;10.13;7.93;;;11.20;1.00;;;;;;5050940;28;20726;-62
2022/03/27 00:47:58;;;;;;;12.17;8.97;;;11.70;1.00;;;;;;5067995;28;20176;-62
2022/03/27 00:50:24;;;;;;;13.57;8.70;;;11.10;1.00;;;;;;5069371;28;20274;-63
2022/03/27 00:52:49;;;;;;;9.60;8.13;;;11.10;1.00;;;;;;5069048;28;20264;-63
2022/03/27 00:55:15;;;;;;;9.50;7.90;;;11.10;1.00;;;;;;5070372;28;20202;-63
2022/03/27 00:57:40;;;;;;;9.83;8.47;;;11.10;1.00;;;;;;5055752;28;20843;-63
2022/03/27 01:00:09;;;;;;;9.43;7.87;;;11.10;1.00;;;;;;5072173;28;20188;-63
2022/03/27 01:02:36;;;;;;;11.53;8.33;;;11.00;1.00;;;;;;5071648;28;20217;-63
2022/03/27 01:05:08;;;;;;;10.40;8.00;;;10.90;1.00;;;;;;5072129;28;20978;-63
2022/03/27 01:07:34;;;;;;;10.37;7.07;;;10.90;1.00;;;;;;5072744;28;20461;-61
2022/03/27 01:09:59;;;;;;;10.40;7.90;;;10.80;1.00;;;;;;5072093;28;20436;-63
2022/03/27 01:12:32;;;;;;;11.33;7.80;;;10.70;1.00;;;;;;5072293;28;20515;-63
2022/03/27 01:14:59;;;;;;;10.00;9.00;;;10.60;1.00;;;;;;5072416;28;20171;-66
2022/03/27 01:17:26;;;;;;;10.40;7.80;;;10.50;1.00;;;;;;5070877;28;20564;-64
2022/03/27 01:19:56;;;;;;;10.40;8.23;;;10.50;1.00;;;;;;5071034;28;20450;-64
2022/03/27 01:22:22;;;;;;;10.53;7.90;;;10.50;1.00;;;;;;5072541;28;20528;-63
2022/03/27 01:24:50;;;;;;;9.80;7.33;;;10.50;1.00;;;;;;5052934;28;20468;-64
2022/03/27 01:27:16;;;;;;;9.67;7.97;;;10.60;1.00;;;;;;5052693;28;20499;-64
2022/03/27 01:29:42;;;;;;;11.60;8.00;;;10.60;1.00;;;;;;5071029;28;20449;-64
2022/03/27 01:32:14;;;;;;;11.63;8.40;;;10.60;1.00;;;;;;5071381;28;20637;-65
2022/03/27 01:34:41;;;;;;;11.13;9.30;;;10.60;1.00;;;;;;5070176;28;20183;-64
2022/03/27 01:37:09;;;;;;;11.83;8.27;;;10.70;1.00;;;;;;5069957;28;20441;-64
2022/03/27 01:39:35;;;;;;;9.80;7.70;;;10.80;1.00;;;;;;5070200;28;20516;-64
2022/03/27 01:42:01;;;;;;;9.13;7.73;;;10.70;1.00;;;;;;5071641;28;20484;-64
2022/03/27 01:44:26;;;;;;;10.33;7.83;;;10.70;1.00;;;;;;5071754;28;20481;-63
2022/03/27 01:46:52;;;;;;;9.00;7.20;;;10.70;1.00;;;;;;5070850;28;20221;-64
2022/03/27 01:49:19;;;;;;;8.70;7.20;;;10.70;1.00;;;;;;5070870;28;20213;-65
2022/03/27 01:51:45;;;;;;;8.70;7.77;;;10.70;1.00;;;;;;5070637;28;20177;-62
2022/03/27 01:54:11;;;;;;;9.40;8.00;;;10.70;1.00;;;;;;5070878;28;20449;-64
2022/03/27 01:56:38;;;;;;;10.77;8.90;;;10.70;1.00;;;;;;5068047;28;20438;-64
2022/03/27 01:59:04;;;;;;;9.90;7.60;;;10.70;1.00;;;;;;5071175;28;20496;-63
2022/03/27 02:01:31;;;;;;;11.07;8.90;;;10.70;1.00;;;;;;5071250;28;20437;-63
2022/03/27 02:03:57;;;;;;;10.47;8.80;;;10.70;1.00;;;;;;5070244;28;21014;-64
2022/03/27 02:06:23;;;;;;;11.10;8.20;;;10.80;1.00;;;;;;5070363;28;20465;-64
2022/03/27 02:08:49;;;;;;;12.10;8.40;;;10.80;1.00;;;;;;5070746;28;20606;-64
2022/03/27 02:11:15;;;;;;;9.30;7.10;;;10.70;1.00;;;;;;5071076;28;20449;-64
2022/03/27 02:13:41;;;;;;;9.90;8.17;;;10.60;1.00;;;;;;5070684;28;20502;-64
2022/03/27 02:16:07;;;;;;;11.60;8.50;;;10.60;1.00;;;;;;5052242;28;20268;-63
2022/03/27 02:18:33;;;;;;;9.30;7.77;;;10.60;1.00;;;;;;5074382;28;20965;-63
2022/03/27 02:21:05;;;;;;;11.23;8.23;;;10.50;1.00;;;;;;5070675;28;20438;-62
2022/03/27 02:23:31;;;;;;;10.77;7.63;;;10.40;1.00;;;;;;5071274;28;20260;-66
2022/03/27 02:25:57;;;;;;;12.27;7.93;;;10.30;1.00;;;;;;5069230;28;20524;-62
2022/03/27 02:28:23;;;;;;;16.90;10.00;;;10.30;1.00;;;;;;5051184;28;20172;-64
2022/03/27 02:30:48;;;;;;;12.37;8.00;;;10.10;1.00;;;;;;5070781;28;20441;-64
2022/03/27 02:33:14;;;;;;;7.93;7.13;;;10.10;1.00;;;;;;5070646;28;20441;-65
2022/03/27 02:35:40;;;;;;;10.37;8.00;;;10.00;1.00;;;;;;5069586;28;20259;-63
2022/03/27 02:38:06;;;;;;;10.27;8.40;;;9.90;1.00;;;;;;5050168;28;20191;-63
2022/03/27 02:40:37;;;;;;;12.00;8.90;;;9.80;1.00;;;;;;5069043;28;20183;-63
2022/03/27 02:43:03;;;;;;;13.20;8.70;;;9.80;1.00;;;;;;5068551;28;20979;-64
2022/03/27 02:45:29;;;;;;;9.97;8.47;;;9.90;1.00;;;;;;5070589;28;20557;-63
2022/03/27 02:47:56;;;;;;;12.00;9.30;;;9.70;1.00;;;;;;5068992;28;20643;-63
2022/03/27 02:50:21;;;;;;;10.60;8.07;;;9.70;1.00;;;;;;5067990;28;20441;-64
2022/03/27 02:52:47;;;;;;;10.73;7.70;;;9.70;1.00;;;;;;5069511;28;20442;-63
2022/03/27 02:55:13;;;;;;;11.97;8.47;;;9.60;1.00;;;;;;5068164;28;20190;-63
2022/03/27 02:57:39;;;;;;;10.00;8.07;;;9.60;1.00;;;;;;5069161;28;20203;-64
2022/03/27 03:00:06;;;;;;;9.40;8.17;;;9.60;1.00;;;;;;5069382;28;20334;-64
2022/03/27 03:02:33;;;;;;;11.63;7.73;;;9.50;1.00;;;;;;5070060;28;20441;-63
2022/03/27 03:04:58;;;;;;;11.90;8.93;;;9.40;1.00;;;;;;5068221;28;20495;-63
2022/03/27 03:07:24;;;;;;;12.03;8.90;;;9.40;1.00;;;;;;5067820;28;20443;-63
2022/03/27 03:09:50;;;;;;;10.33;8.10;;;9.40;1.00;;;;;;5070249;28;20184;-64
2022/03/27 03:12:16;;;;;;;9.83;8.30;;;9.40;1.00;;;;;;5069317;28;20469;-64
2022/03/27 03:14:42;;;;;;;13.83;8.73;;;9.30;1.00;;;;;;5069202;28;20977;-62
2022/03/27 03:17:10;;;;;;;10.67;8.17;;;9.30;1.00;;;;;;5068562;28;20215;-64
2022/03/27 03:19:35;;;;;;;12.47;8.63;;;9.30;1.00;;;;;;5066952;28;20243;-63
2022/03/27 03:22:01;;;;;;;11.50;8.53;;;9.40;1.00;;;;;;5068936;28;20437;-62
2022/03/27 03:24:27;;;;;;;11.33;8.27;;;9.30;1.00;;;;;;5068963;28;20262;-64
2022/03/27 03:26:54;;;;;;;10.90;8.50;;;9.20;1.00;;;;;;5050572;28;20736;-63
2022/03/27 03:29:21;;;;;;;11.50;8.47;;;9.20;1.00;;;;;;5068278;28;20445;-63
2022/03/27 03:31:47;;;;;;;12.43;7.80;;;9.10;1.00;;;;;;5067880;28;20529;-64
2022/03/27 03:34:12;;;;;;;13.00;8.60;;;9.10;1.00;;;;;;5069604;28;21090;-63
2022/03/27 03:36:38;;;;;;;11.97;8.17;;;9.00;1.00;;;;;;5068538;28;20191;-63
2022/03/27 03:39:04;;;;;;;9.87;7.60;;;9.10;1.00;;;;;;5068317;28;20530;-63
2022/03/27 03:41:29;;;;;;;9.17;7.37;;;9.10;1.00;;;;;;5069393;28;20214;-63
2022/03/27 03:43:55;;;;;;;12.50;9.53;;;;;;;;;;5068235;28;20583;-64
2022/03/27 03:46:21;;;;;;;9.37;7.87;;;;;;;;;;5068163;28;20203;-63
2022/03/27 03:48:47;;;;;;;13.10;8.77;;;9.00;1.00;;;;;;5069547;28;20452;-63
2022/03/27 03:51:12;;;;;;;12.67;8.87;;;9.00;1.00;;;;;;5068611;28;20436;-63
2022/03/27 03:53:38;;;;;;;12.40;8.67;;;;;;;;;;5069315;28;20175;-63
2022/03/27 03:56:05;;;;;;;14.03;8.83;;;8.80;1.00;;;;;;5068260;28;20183;-63
2022/03/27 03:58:31;;;;;;;11.10;8.50;;;8.70;1.00;;;;;;5069250;28;20452;-63
2022/03/27 04:00:57;;;;;;;10.67;8.60;;;;;;;;;;5068789;28;20438;-63
2022/03/27 04:03:23;;;;;;;10.50;8.07;;;8.80;1.00;;;;;;5069472;28;20449;-64
2022/03/27 04:05:48;;;;;;;9.07;7.67;;;8.80;1.00;;;;;;5050765;28;20469;-64
2022/03/27 04:08:14;;;;;;;11.53;8.63;;;8.70;1.00;;;;;;5068701;28;20223;-64
2022/03/27 04:10:41;;;;;;;10.37;7.87;;;8.60;1.00;;;;;;5069268;28;20175;-63
2022/03/27 04:13:07;;;;;;;11.03;8.20;;;8.50;1.00;;;;;;5050204;28;20448;-63
2022/03/27 04:15:33;;;;;;;12.23;8.90;;;8.60;1.00;;;;;;5070257;28;20445;-63
2022/03/27 04:18:00;;;;;;;9.77;7.50;;;;;;;;;;5067528;28;20263;-62
2022/03/27 04:20:26;;;;;;;11.70;8.90;;;8.60;1.00;;;;;;5068536;28;20499;-64
2022/03/27 04:22:51;;;;;;;11.00;8.10;;;8.50;1.00;;;;;;5068678;28;20430;-64
2022/03/27 04:25:17;;;;;;;13.17;8.60;;;8.50;1.00;;;;;;5068036;28;20556;-63
2022/03/27 04:27:43;;;;;;;11.13;8.97;;;8.40;1.00;;;;;;5068645;28;20259;-63
2022/03/27 04:30:10;;;;;;;12.83;9.67;;;8.40;1.00;;;;;;5070719;28;20271;-63
2022/03/27 04:32:37;;;;;;;10.97;8.70;;;8.40;1.00;;;;;;5053557;28;20201;-64
2022/03/27 04:35:04;;;;;;;13.80;9.40;;;8.40;1.00;;;;;;5071719;28;21013;-63
2022/03/27 04:37:30;;;;;;;11.90;8.70;;;8.40;1.00;;;;;;5072101;28;20452;-64
2022/03/27 04:40:02;;;;;;;12.67;9.30;;;8.40;1.00;;;;;;5075234;28;20826;-63
2022/03/27 04:42:29;;;;;;;11.17;8.90;;;8.40;1.00;;;;;;5069017;28;20445;-63
2022/03/27 04:44:55;;;;;;;12.60;9.07;;;8.40;1.00;;;;;;5072067;28;20542;-63
2022/03/27 04:47:21;;;;;;;11.60;8.60;;;8.50;1.00;;;;;;5070888;28;20450;-63
2022/03/27 04:49:46;;;;;;;12.37;8.20;;;8.40;1.00;;;;;;5069316;28;20450;-64
2022/03/27 04:52:12;;;;;;;12.93;7.80;;;8.40;1.00;;;;;;5071688;28;20259;-63
2022/03/27 04:54:38;;;;;;;12.00;9.10;;;8.40;1.00;;;;;;5071748;28;20242;-63
2022/03/27 04:57:04;;;;;;;10.30;7.83;;;8.20;1.00;;;;;;5070800;28;20179;-62
2022/03/27 04:59:29;;;;;;;10.10;7.27;;;8.10;1.00;;;;;;5071113;28;20548;-62
2022/03/27 05:01:57;;;;;;;10.83;7.37;;;8.20;1.00;;;;;;5071449;28;20186;-63
2022/03/27 05:04:22;;;;;;;11.17;8.43;;;8.10;1.00;;;;;;5072406;28;20198;-63
2022/03/27 05:06:48;;;;;;;10.57;7.77;;;8.20;1.00;;;;;;5072298;28;20974;-63
2022/03/27 05:09:14;;;;;;;10.77;8.27;;;8.10;1.00;;;;;;5074113;28;20219;-64
2022/03/27 05:11:40;;;;;;;13.53;9.80;;;8.10;1.00;;;;;;5073194;28;20211;-61
2022/03/27 05:14:06;;;;;;;12.60;10.07;;;8.10;1.00;;;;;;5072421;28;20452;-63
2022/03/27 05:16:31;;;;;;;12.47;8.47;;;8.00;1.00;;;;;;5072527;28;20270;-63
2022/03/27 05:18:57;;;;;;;16.93;10.00;;;8.00;1.00;;;;;;5070782;28;20267;-63
2022/03/27 05:21:23;;;;;;;14.10;9.23;;;8.00;1.00;;;;;;5069940;28;20202;-60
2022/03/27 05:23:48;;;;;;;12.50;9.50;;;8.00;1.00;;;;;;5071595;28;20183;-63
2022/03/27 05:26:14;;;;;;;11.43;9.40;;;8.00;1.00;;;;;;5071389;28;20477;-62
2022/03/27 05:28:40;;;;;;;10.60;8.33;;;8.00;1.00;;;;;;5070103;28;20180;-62
2022/03/27 05:31:08;;;;;;;12.50;9.70;;;8.00;1.00;;;;;;5069922;28;20171;-63
2022/03/27 05:33:36;;;;;;;12.77;8.80;;;8.10;1.00;;;;;;5070985;28;20179;-63
2022/03/27 05:36:07;;;;;;;12.40;8.80;;;8.10;1.00;;;;;;5072576;28;20452;-65
2022/03/27 05:38:33;;;;;;;11.73;8.23;;;8.10;1.00;;;;;;5067532;28;20491;-63
2022/03/27 05:40:59;;;;;;;14.10;9.00;;;8.10;1.00;;;;;;5069618;28;20810;-63
2022/03/27 05:43:25;;;;;;;13.30;9.87;;;;;;;;;;5071384;28;20441;-64
2022/03/27 05:45:50;;;;;;;12.57;9.40;;;8.00;1.00;;;;;;5068830;28;20286;-65
2022/03/27 05:48:16;;;;;;;14.70;9.50;;;;;;;;;;5069759;28;20528;-63
2022/03/27 05:50:42;;;;;;;14.07;9.13;;;8.10;1.00;;;;;;5070933;28;20298;-63
2022/03/27 05:53:07;;;;;;;11.53;9.00;;;8.10;1.00;;;;;;5069537;28;20438;-63
2022/03/27 05:55:33;;;;;;;11.03;8.40;;;8.20;1.00;;;;;;5070883;28;20248;-62
2022/03/27 05:58:00;;;;;;;13.07;9.37;;;8.30;1.00;;;;;;5071016;28;20199;-63
2022/03/27 06:00:26;;;;;;;10.40;8.90;;;8.40;1.00;;;;;;5071045;28;20210;-63
2022/03/27 06:02:52;;;;;;;13.03;8.80;;;8.40;1.00;;;;;;5070008;28;20441;-64
2022/03/27 06:05:22;;;;;;;12.67;8.40;;;8.50;1.00;;;;;;5070414;28;20520;-63
2022/03/27 06:07:50;;;;;;;11.97;9.40;;;8.50;1.00;;;;;;5068722;28;20219;-63
2022/03/27 06:10:21;;;;;;;9.70;8.03;;;8.60;1.00;;;;;;5069121;28;20437;-64
2022/03/27 06:12:46;;;;;;;12.37;8.70;;;8.80;1.00;;;;;;5071366;28;20464;-64
2022/03/27 06:15:13;;;;;;;11.47;9.47;;;9.00;1.00;;;;;;5070336;28;20799;-64
2022/03/27 06:17:41;;;;;;;10.40;8.77;;;9.10;1.00;;;;;;5051750;28;20583;-64
2022/03/27 06:20:08;;;;;;;13.63;8.70;;;9.10;1.00;;;;;;5069304;28;20442;-62
2022/03/27 06:22:33;;;;;;;11.43;8.73;;;9.20;1.00;;;;;;5070634;28;20555;-63
2022/03/27 06:24:59;;;;;;;11.20;8.43;;;9.30;1.00;;;;;;5069965;28;20458;-64
2022/03/27 06:27:25;;;;;;;11.63;8.03;;;9.40;1.00;;;;;;5068449;28;20188;-64
2022/03/27 06:29:50;;;;;;;12.93;9.20;;;9.70;1.00;;;;;;5069749;28;20442;-62
2022/03/27 06:32:16;;;;;;;10.57;8.13;;;9.80;1.00;;;;;;5066816;28;20261;-62
2022/03/27 06:34:41;;;;;;;12.03;8.83;;;9.90;1.00;;;;;;5070479;28;20206;-62
2022/03/27 06:37:08;;;;;;;11.33;8.20;;;9.90;1.00;;;;;;5049141;28;20260;-63
2022/03/27 06:39:33;;;;;;;18.13;8.77;;;10.10;1.00;;;;;;5066562;28;20194;-63
2022/03/27 06:41:59;;;;;;;10.03;8.00;;;10.10;1.00;;;;;;5070037;28;20947;-63
2022/03/27 06:44:25;;;;;;;10.90;8.37;;;10.10;1.00;;;;;;5050556;28;20183;-63
2022/03/27 06:46:50;;;;;;;9.53;8.00;;;10.30;1.00;;;;;;5068713;28;20192;-63
2022/03/27 06:49:16;;;;;;;11.20;8.03;;;10.40;1.00;;;;;;5070612;28;20568;-64
2022/03/27 06:51:41;;;;;;;12.43;9.37;;;10.50;1.00;;;;;;5052623;28;20318;-64
2022/03/27 06:54:07;;;;;;;11.80;9.00;;;10.50;1.00;;;;;;5068483;28;20183;-64
2022/03/27 06:56:33;;;;;;;10.90;8.47;;;10.50;1.00;;;;;;5068746;28;20555;-63
2022/03/27 06:58:59;;;;;;;12.77;8.70;;;10.60;1.00;;;;;;5067309;28;20510;-64
2022/03/27 07:04:10;;;;;;;10.50;8.90;;;10.80;1.00;;;;;;5066027;28;20243;-63
2022/03/27 07:06:35;;;;;;;10.70;8.50;;;10.90;1.00;;;;;;5068953;28;20462;-64
2022/03/27 07:09:01;;;;;;;12.63;8.97;;;10.90;1.00;;;;;;5068592;28;20465;-64
2022/03/27 07:11:27;;;;;;;10.47;8.57;;;11.00;1.00;;;;;;5068747;28;20553;-64
2022/03/27 07:13:53;;;;;;;10.33;8.37;;;11.10;1.00;;;;;;5068975;28;20184;-63
2022/03/27 07:16:18;;;;;;;12.67;8.87;;;11.20;1.00;;;;;;5071398;28;20183;-65
2022/03/27 07:18:49;;;;;;;14.10;9.27;;;11.20;1.00;;;;;;5064514;28;20269;-64
2022/03/27 07:21:15;;;;;;;10.70;8.50;;;;;;;;;;5069344;28;20300;-63
2022/03/27 07:23:40;;;;;;;13.90;8.80;;;11.20;1.00;;;;;;5069033;28;20723;-63
2022/03/27 07:26:06;;;;;;;11.50;9.37;;;11.50;1.00;;;;;;5070301;28;20504;-64
2022/03/27 07:28:31;;;;;;;10.97;8.67;;;11.60;1.00;;;;;;5068265;28;20197;-64
2022/03/27 07:30:58;;;;;;;12.63;8.53;;;;;;;;;;5069068;28;20215;-64
2022/03/27 07:33:24;;;;;;;14.10;10.07;;;11.60;1.00;;;;;;5066896;28;20446;-64
2022/03/27 07:35:50;;;;;;;11.73;10.17;;;11.80;1.00;;;;;;5068591;28;20451;-64
2022/03/27 07:38:16;;;;;;;11.10;8.27;;;;;;;;;;5069107;28;20464;-66
2022/03/27 07:40:42;;;;;;;10.77;9.53;;;12.00;1.00;;;;;;5051287;28;20180;-63
2022/03/27 07:43:08;;;;;;;13.27;9.43;;;12.10;1.00;;;;;;5067705;28;20491;-63
2022/03/27 07:45:35;;;;;;;11.37;8.90;;;12.30;1.00;;;;;;5067930;28;20230;-64
2022/03/27 07:48:01;;;;;;;13.73;9.40;;;12.40;1.00;;;;;;5068426;28;20460;-64
2022/03/27 07:50:28;;;;;;;10.60;8.53;;;12.50;1.00;;;;;;5064284;28;20440;-63
2022/03/27 07:52:54;;;;;;;11.27;9.30;;;12.50;1.00;;;;;;5065989;28;20186;-65
2022/03/27 07:55:20;;;;;;;11.57;9.37;;;12.60;1.00;;;;;;5069416;28;20445;-64
2022/03/27 07:57:46;;;;;;;10.33;9.00;;;12.80;1.00;;;;;;5068940;28;20203;-64
2022/03/27 08:00:14;;;;;;;11.87;9.03;;;12.80;1.00;;;;;;5068255;28;20483;-64
2022/03/27 08:02:41;;;;;;;14.83;9.30;;;12.90;1.00;;;;;;5069154;28;20453;-62
2022/03/27 08:05:07;;;;;;;13.97;9.33;;;13.00;1.00;;;;;;5072411;28;20460;-63
2022/03/27 08:07:33;;;;;;;14.33;9.10;;;13.10;1.00;;;;;;5071559;28;20934;-64
2022/03/27 08:10:00;;;;;;;12.87;10.03;;;13.30;1.00;;;;;;5072234;28;20444;-63
2022/03/27 08:12:26;;;;;;;10.20;8.97;;;14.20;1.00;;;;;;5074718;28;20445;-64
2022/03/27 08:14:52;;;;;;;10.90;9.73;;;13.60;1.00;;;;;;5072446;28;20459;-63
2022/03/27 08:17:18;;;;;;;11.23;9.03;;;13.90;1.00;;;;;;5053477;28;20514;-63
2022/03/27 08:19:44;;;;;;;12.10;9.60;;;13.90;1.00;;;;;;5069970;28;20660;-63
2022/03/27 08:22:11;;;;;;;11.30;8.77;;;;;;;;;;5072180;28;20198;-63
2022/03/27 08:24:37;;;;;;;11.43;10.00;;;14.30;1.00;;;;;;5071429;28;20577;-65
2022/03/27 08:27:04;;;;;;;12.10;9.20;;;14.50;1.00;;;;;;5070634;28;21104;-62
2022/03/27 08:29:35;;;;;;;12.43;9.37;;;14.60;1.00;;;;;;5072304;28;20426;-63
2022/03/27 08:32:03;;;;;;;13.83;9.80;;;14.70;1.00;;;;;;5069588;28;20438;-67
2022/03/27 08:34:30;;;;;;;11.63;10.43;;;14.90;1.00;;;;;;5070738;28;20437;-65
2022/03/27 08:36:57;;;;;;;9.90;8.57;;;14.90;1.00;;;;;;5069291;28;20926;-66
2022/03/27 08:39:25;;;;;;;11.40;9.77;;;14.90;1.00;;;;;;5070821;28;20445;-65
2022/03/27 08:41:54;;;;;;;12.40;8.80;;;14.90;1.00;;;;;;5071552;28;20947;-64
2022/03/27 08:44:21;;;;;;;11.47;9.43;;;14.80;1.00;;;;;;5072196;28;20429;-65
2022/03/27 08:46:49;;;;;;;9.63;8.20;;;15.20;1.00;;;;;;5071804;28;20500;-65
2022/03/27 08:49:33;;;;;;;9.33;7.97;;;15.50;1.00;;;;;;5071190;28;20433;-65
2022/03/27 08:52:17;;;;;;;10.73;8.83;;;15.00;1.00;;;;;;5068412;28;20433;-66
2022/03/27 08:54:50;;;;;;;9.90;8.90;;;14.90;1.00;;;;;;5071708;28;20807;-64
2022/03/27 08:57:57;;;;;;;12.03;8.23;;;15.20;1.00;;;;;;5071717;28;20851;-63
2022/03/27 09:00:25;;;;;;;8.80;7.90;;;15.40;1.00;;;;;;5070716;28;20942;-63
2022/03/27 09:02:51;;;;;;;9.63;8.37;;;15.70;1.00;;;;;;5071140;28;20837;-63
2022/03/27 09:05:20;;;;;;;12.50;8.20;;;15.70;1.00;;;;;;5072120;28;20457;-63
2022/03/27 09:07:46;;;;;;;10.13;9.07;;;15.70;1.00;;;;;;5072098;28;20203;-64
2022/03/27 09:10:12;;;;;;;10.30;9.00;;;15.70;1.00;;;;;;5071423;28;20437;-63
2022/03/27 09:12:38;;;;;;;9.47;8.47;;;16.10;1.00;;;;;;5071682;28;20463;-64
2022/03/27 09:15:08;;;;;;;10.87;9.00;;;14.70;1.00;;;;;;5071489;28;20195;-65
2022/03/27 09:18:04;;;;;;;8.47;7.20;;;16.10;1.00;;;;;;5071723;28;20445;-64
2022/03/27 09:20:42;;;;;;;10.50;8.23;;;16.10;1.00;;;;;;5071050;28;20445;-64
2022/03/27 09:23:31;;;;;;;11.57;8.53;;;16.20;1.00;;;;;;5070750;28;20524;-63
2022/03/27 09:26:01;;;;;;;8.90;8.00;;;16.40;1.00;;;;;;5071302;28;20466;-64
2022/03/27 09:28:44;;;;;;;10.33;8.30;;;16.40;1.00;;;;;;5071092;28;20513;-64
2022/03/27 09:31:18;;;;;;;10.47;9.03;;;16.40;1.00;;;;;;5071306;28;20442;-63
2022/03/27 09:33:48;;;;;;;11.00;9.30;;;16.70;1.00;;;;;;5070863;28;20505;-64
2022/03/27 09:36:16;;;;;;;8.63;7.70;;;16.70;1.00;;;;;;5070491;28;20954;-63
2022/03/27 09:39:00;;;;;;;8.90;8.00;;;17.00;1.00;;;;;;5071677;28;20795;-64
2022/03/27 09:41:30;;;;;;;9.00;8.07;;;16.80;1.00;;;;;;5070548;28;20449;-65
2022/03/27 09:44:04;;;;;;;9.43;8.43;;;16.90;1.00;;;;;;5070311;28;20572;-65
2022/03/27 09:46:54;;;;;;;14.07;11.23;;;17.10;1.00;;;;;;5070913;28;20472;-65
2022/03/27 09:49:25;;;;;;;9.20;8.13;;;17.30;1.00;;;;;;5069329;28;20437;-64
2022/03/27 09:51:58;;;;;;;10.43;9.13;;;16.00;1.00;;;;;;5071103;28;20441;-64
2022/03/27 09:54:25;;;;;;;10.83;9.67;;;17.30;1.00;;;;;;5068063;28;20441;-65
2022/03/27 09:56:51;;;;;;;9.87;8.43;;;17.30;1.00;;;;;;5068152;28;20924;-62
2022/03/27 09:59:30;;;;;;;9.27;8.37;;;17.30;1.00;;;;;;5070597;28;20437;-61
2022/03/27 10:02:18;;;;;;;12.17;8.60;;;17.00;1.00;;;;;;5070005;28;20187;-66
2022/03/27 10:05:08;;;;;;;9.60;8.13;;;17.00;1.00;;;;;;5071279;28;20834;-63
2022/03/27 10:07:41;;;;;;;9.63;8.63;;;17.20;1.00;;;;;;5065679;28;20528;-64
2022/03/27 10:10:12;;;;;;;9.87;8.50;;;17.60;1.00;;;;;;5067906;28;20963;-63
2022/03/27 10:12:39;;;;;;;9.13;8.17;;;17.90;1.00;;;;;;5070251;28;20449;-63
2022/03/27 10:15:12;;;;;;;9.27;8.03;;;17.90;1.00;;;;;;5070911;28;20524;-63
2022/03/27 10:17:38;;;;;;;9.73;8.23;;;17.70;1.00;;;;;;5069150;28;20505;-64
2022/03/27 10:20:09;;;;;;;9.50;8.50;;;17.60;1.00;;;;;;5071053;28;20506;-64
2022/03/27 10:22:44;;;;;;;9.53;7.63;;;17.80;1.00;;;;;;5069047;28;20445;-63
2022/03/27 10:25:13;;;;;;;9.30;8.30;;;17.80;1.00;;;;;;5069637;28;20464;-64
2022/03/27 10:27:40;;;;;;;8.10;7.30;;;18.10;1.00;;;;;;5066920;28;20460;-64
2022/03/27 10:30:08;;;;;;;8.40;7.60;;;18.10;1.00;;;;;;5051561;28;20412;-65
2022/03/27 10:32:35;;;;;;;8.70;7.73;;;18.20;1.00;;;;;;5072314;28;20438;-63
2022/03/27 10:35:34;;;;;;;9.37;7.43;;;18.20;1.00;;;;;;5072031;28;20434;-63
2022/03/27 10:38:38;;;;;;;9.50;8.50;;;18.50;1.00;;;;;;5069372;28;20479;-63
2022/03/27 10:41:13;;;;;;;8.97;8.13;;;18.50;1.00;;;;;;5069289;28;20467;-63
2022/03/27 10:43:47;;;;;;;8.70;7.90;;;18.50;1.00;;;;;;5052644;28;20444;-62
2022/03/27 10:46:19;;;;;;;9.07;8.17;;;18.50;1.00;;;;;;5052655;28;20468;-62
2022/03/27 10:48:46;;;;;;;8.53;7.60;;;18.50;1.00;;;;;;5068260;28;20831;-64
2022/03/27 10:51:33;;;;;;;8.50;7.60;;;18.40;1.00;;;;;;5052905;28;20477;-64
2022/03/27 10:54:08;;;;;;;10.73;8.73;;;18.80;1.00;;;;;;5070646;28;20704;-63
2022/03/27 10:56:38;;;;;;;8.13;7.20;;;18.80;1.00;;;;;;5070161;28;20449;-63
2022/03/27 10:59:08;;;;;;;10.43;9.30;;;18.50;1.00;;;;;;5070477;28;20657;-62
2022/03/27 11:01:42;;;;;;;11.00;8.30;;;18.30;1.00;;;;;;5070306;28;20486;-64
2022/03/27 11:04:14;;;;;;;7.70;6.80;;;18.20;1.00;;;;;;5065765;28;20970;-64
2022/03/27 11:06:45;;;;;;;9.03;8.00;;;18.10;1.00;;;;;;5068759;28;20465;-64
2022/03/27 11:09:38;;;;;;;8.67;7.80;;;18.20;1.00;;;;;;5067996;28;20473;-63
2022/03/27 11:12:06;;;;;;;9.17;8.27;;;18.20;1.00;;;;;;5069199;28;20438;-63
2022/03/27 11:14:51;;;;;;;7.97;6.67;;;18.10;1.00;;;;;;5066736;28;20441;-62
2022/03/27 11:17:28;;;;;;;9.70;8.63;;;18.10;1.00;;;;;;5069593;28;20441;-65
2022/03/27 11:19:54;;;;;;;7.50;6.80;;;18.10;1.00;;;;;;5068779;28;20436;-64
2022/03/27 11:22:52;;;;;;;8.87;7.77;;;18.20;1.00;;;;;;5069165;28;21065;-64
2022/03/27 11:25:44;;;;;;;7.37;6.63;;;18.50;1.00;;;;;;5068714;28;20207;-65
2022/03/27 11:28:12;;;;;;;7.90;6.80;;;18.80;1.00;;;;;;5068172;28;20487;-65
2022/03/27 11:30:59;;;;;;;10.20;7.73;;;19.00;1.00;;;;;;5069969;28;20444;-63
2022/03/27 11:33:30;;;;;;;7.70;7.00;;;19.10;1.00;;;;;;5051372;28;20521;-64
2022/03/27 11:36:07;;;;;;;8.40;6.83;;;19.10;1.00;;;;;;5067766;28;20442;-63
2022/03/27 11:38:52;;;;;;;7.80;7.00;;;19.30;1.00;;;;;;5068701;28;21004;-64
2022/03/27 11:41:44;;;;;;;9.10;6.50;;;19.60;1.00;;;;;;5068202;28;20446;-63
2022/03/27 11:44:22;;;;;;;7.37;6.00;;;19.50;1.00;;;;;;5067198;28;21100;-63
2022/03/27 11:46:53;;;;;;;7.40;6.37;;;19.40;1.00;;;;;;5066648;28;20443;-62
2022/03/27 11:49:21;;;;;;;6.93;6.33;;;18.90;1.00;;;;;;5069241;28;20521;-64
2022/03/27 11:52:02;;;;;;;5.97;5.23;;;19.00;1.00;;;;;;5068617;28;20442;-62
2022/03/27 11:54:28;;;;;;;7.23;6.53;;;19.00;1.00;;;;;;5067465;28;20445;-63
2022/03/27 11:56:54;;;;;;;6.77;5.60;;;19.00;1.00;;;;;;5067730;28;20503;-63
2022/03/27 11:59:20;;;;;;;7.13;5.40;;;19.00;1.00;;;;;;5069691;28;20279;-65
2022/03/27 12:01:51;;;;;;;5.37;4.70;;;19.40;1.00;;;;;;5068610;28;20472;-63
2022/03/27 12:04:18;;;;;;;5.23;4.73;;;19.60;1.00;;;;;;5068945;28;20187;-63
2022/03/27 12:06:44;;;;;;;6.60;4.70;;;19.80;1.00;;;;;;5051707;28;20479;-64
2022/03/27 12:09:24;;;;;;;5.23;4.13;;;19.70;1.00;;;;;;5068655;28;20469;-62
2022/03/27 12:12:13;;;;;;;5.30;4.60;;;19.60;1.00;;;;;;5067930;28;20209;-63
2022/03/27 12:14:54;;;;;;;5.67;4.97;;;19.40;1.00;;;;;;5069612;28;20864;-65
2022/03/27 12:17:19;;;;;;;6.00;5.40;;;19.20;1.00;;;;;;5063797;28;20452;-64
2022/03/27 12:20:05;;;;;;;4.80;3.57;;;19.50;1.00;;;;;;5066572;28;20416;-65
2022/03/27 12:22:51;;;;;;;3.80;3.50;;;19.40;1.00;;;;;;5067280;28;20770;-68
2022/03/27 12:25:22;;;;;;;6.00;4.47;;;19.60;1.00;;;;;;5067187;28;21371;-64
2022/03/27 12:30:52;;;;;;;4.77;4.30;;;19.50;1.00;;;;;;5068871;28;20440;-63
2022/03/27 12:33:23;;;;;;;8.97;4.03;;;19.20;1.00;;;;;;5068540;28;20938;-63
2022/03/27 12:36:10;;;;;;;5.37;4.30;;;19.30;1.00;;;;;;5066152;28;20447;-64
2022/03/27 12:38:36;;;;;;;4.47;4.07;;;19.30;1.00;;;;;;5066166;28;20419;-63
2022/03/27 12:41:06;;;;;;;4.60;3.80;;;19.50;1.00;;;;;;5067396;28;20777;-64
2022/03/27 12:43:32;;;;;;;4.47;4.07;;;19.40;1.00;;;;;;5068531;28;20466;-64
2022/03/27 12:45:58;;;;;;;6.00;3.50;;;19.40;1.00;;;;;;5067600;28;20945;-65
2022/03/27 12:48:27;;;;;;;5.23;4.17;;;19.40;1.00;;;;;;5068343;28;20455;-69
2022/03/27 12:50:57;;;;;;;4.23;3.80;;;19.40;1.00;;;;;;5069288;28;20191;-65
2022/03/27 12:53:23;;;;;;;4.87;4.13;;;19.10;1.00;;;;;;5067606;28;20457;-64
2022/03/27 12:55:53;;;;;;;4.50;4.10;;;19.20;1.00;;;;;;5072752;28;20591;-63
2022/03/27 12:58:34;;;;;;;4.80;3.60;;;18.90;1.00;;;;;;5067959;28;20206;-65
2022/03/27 13:01:30;;;;;;;5.13;4.10;;;18.90;1.00;;;;;;5068107;28;20441;-64
2022/03/27 13:04:04;;;;;;;4.60;3.77;;;19.10;1.00;;;;;;5050902;28;20505;-63
2022/03/27 13:06:43;;;;;;;4.63;3.77;;;19.10;1.00;;;;;;5070199;28;20525;-64
2022/03/27 13:09:10;;;;;;;4.60;3.43;;;19.00;1.00;;;;;;5069437;28;20515;-63
2022/03/27 13:11:43;;;;;;;4.17;3.33;;;19.00;1.00;;;;;;5073403;28;20840;-63
2022/03/27 13:14:10;;;;;;;4.63;3.40;;;19.10;1.00;;;;;;5072025;28;20945;-63